KSUW/SUW METAR and TAF weather

Enter ICAO airport designator
Station Type Date Time Source
KSUW METAR 2021/04/18 01:55 UTC NOAA

KSUW 180155Z AUTO 28004KT 10SM CLR 10/M05 A2994 RMK AO2 T01011054


Station Type Date Time Source
KSUW Decoded METAR 2021/04/18 01:55 UTC NOAA

Superior, Richard I. Bong Airport, WI, United States (KSUW) 46-41-23N 092-05-41W
Apr 17, 2021 - 09:55 PM EDT / 2021.04.18 0155 UTC
Wind: from the W (280 degrees) at 5 MPH (4 KT):0
Visibility: 10 mile(s):0
Sky conditions: clear
Temperature: 50.2 F (10.1 C)
Dew Point: 22.3 F (-5.4 C)
Relative Humidity: 33%
Pressure (altimeter): 29.94 in. Hg (1013 hPa)
ob: KSUW 180155Z AUTO 28004KT 10SM CLR 10/M05 A2994 RMK AO2 T01011054
cycle: 2

Station Type Date Time Source
KSUW TAF UTC NOAA

Error!

Example: see airport list